Time;durP1;ratioP1;P1;durP2;ratioP2;P2;SDS_P1;SDS_P2;PMS_P1;PMS_P2;Temp;Humidity;BMP_temperature;BMP_pressure;BME280_temperature;BME280_humidity;BME280_pressure;Samples;Min_cycle;Max_cycle;Signal;HPM_P1;HPM_P2
2022/03/23 00:00:26;;;;;;;29.50;23.63;;;8.10;99.90;;;;;;6251208;22;20384;-87
2022/03/23 00:02:52;;;;;;;33.10;24.80;;;8.00;99.90;;;;;;6225825;22;20467;-88
2022/03/23 00:05:18;;;;;;;34.35;26.90;;;8.00;99.90;;;;;;6251293;22;20019;-88
2022/03/23 00:07:44;;;;;;;32.03;25.40;;;8.00;99.90;;;;;;6225473;22;20031;-87
2022/03/23 00:10:11;;;;;;;36.83;27.50;;;8.00;99.90;;;;;;6225924;22;20051;-87
2022/03/23 00:12:36;;;;;;;40.63;30.55;;;7.90;99.90;;;;;;6251008;22;20405;-86
2022/03/23 00:15:03;;;;;;;34.77;27.63;;;8.00;99.90;;;;;;6225436;22;20023;-87
2022/03/23 00:17:28;;;;;;;34.47;26.45;;;8.00;99.90;;;;;;6250761;22;20015;-87
2022/03/23 00:19:54;;;;;;;33.10;27.00;;;7.90;99.90;;;;;;6250619;22;20018;-88
2022/03/23 00:22:20;;;;;;;35.30;27.17;;;7.90;99.90;;;;;;6225264;22;20015;-87
2022/03/23 00:24:46;;;;;;;35.85;28.00;;;7.90;99.90;;;;;;6225443;22;20020;-89
2022/03/23 00:27:12;;;;;;;41.97;30.10;;;7.80;99.90;;;;;;6225526;22;20015;-88
2022/03/23 00:29:38;;;;;;;38.13;30.42;;;7.80;99.90;;;;;;6225768;22;20008;-88
2022/03/23 00:32:05;;;;;;;36.00;28.87;;;7.80;99.90;;;;;;6225646;22;20443;-89
2022/03/23 00:34:30;;;;;;;36.65;28.25;;;7.80;99.90;;;;;;6225839;22;20337;-88
2022/03/23 00:36:56;;;;;;;39.87;29.10;;;7.80;99.90;;;;;;6226020;22;20020;-88
2022/03/23 00:39:22;;;;;;;34.70;25.57;;;7.90;99.90;;;;;;6226012;22;20512;-87
2022/03/23 00:41:50;;;;;;;44.53;31.88;;;7.80;99.90;;;;;;6251240;22;20322;-90
2022/03/23 00:44:16;;;;;;;35.70;27.52;;;7.80;99.90;;;;;;6225640;22;20047;-90
2022/03/23 00:46:42;;;;;;;37.90;26.73;;;7.80;99.90;;;;;;6225723;22;20016;-88
2022/03/23 00:49:09;;;;;;;33.00;25.83;;;7.80;99.90;;;;;;6225620;22;20023;-89
2022/03/23 00:51:35;;;;;;;35.53;26.55;;;7.80;99.90;;;;;;6225248;22;20019;-89
2022/03/23 00:54:01;;;;;;;35.25;26.77;;;7.70;99.90;;;;;;6225354;22;20023;-89
2022/03/23 00:56:27;;;;;;;34.37;27.53;;;7.70;99.90;;;;;;6225430;22;20012;-88
2022/03/23 00:58:52;;;;;;;34.27;26.83;;;7.60;99.90;;;;;;6255275;22;20457;-89
2022/03/23 01:01:18;;;;;;;34.60;27.37;;;7.60;99.90;;;;;;6255801;22;20023;-89
2022/03/23 01:03:44;;;;;;;39.40;29.87;;;7.50;99.90;;;;;;6255991;22;20069;-88
2022/03/23 01:06:10;;;;;;;34.03;27.20;;;7.40;99.90;;;;;;6255509;22;20027;-89
2022/03/23 01:08:35;;;;;;;36.17;26.97;;;7.40;99.90;;;;;;6255681;22;20022;-89
2022/03/23 01:11:01;;;;;;;48.50;34.07;;;7.30;99.90;;;;;;6256079;22;20015;-88
2022/03/23 01:13:27;;;;;;;51.40;37.10;;;7.20;99.90;;;;;;6255843;22;20051;-88
2022/03/23 01:15:53;;;;;;;49.85;35.15;;;7.10;99.90;;;;;;6255651;22;20022;-88
2022/03/23 01:18:19;;;;;;;54.00;38.67;;;7.10;99.90;;;;;;6255516;22;20348;-88
2022/03/23 01:20:44;;;;;;;54.60;37.83;;;7.10;99.90;;;;;;6255803;22;20054;-89
2022/03/23 01:23:10;;;;;;;52.30;38.80;;;7.10;99.90;;;;;;6255569;22;20026;-89
2022/03/23 01:25:36;;;;;;;53.83;37.13;;;7.10;99.90;;;;;;6255649;22;20117;-89
2022/03/23 01:28:02;;;;;;;55.13;39.47;;;7.10;99.90;;;;;;6255406;22;20102;-88
2022/03/23 01:30:28;;;;;;;56.60;42.42;;;7.10;99.90;;;;;;6255645;22;20015;-88
2022/03/23 01:32:54;;;;;;;53.93;39.13;;;7.10;99.90;;;;;;6255322;22;20107;-88
2022/03/23 01:35:20;;;;;;;55.10;38.77;;;7.10;99.90;;;;;;6255230;22;20098;-87
2022/03/23 01:37:46;;;;;;;54.33;38.90;;;7.10;99.90;;;;;;6255478;22;20048;-88
2022/03/23 01:40:13;;;;;;;58.13;40.87;;;7.10;99.90;;;;;;6255500;22;20331;-88
2022/03/23 01:42:40;;;;;;;53.25;39.55;;;7.10;99.90;;;;;;6255352;22;20019;-89
2022/03/23 01:45:08;;;;;;;55.83;38.70;;;7.10;99.90;;;;;;6255376;22;20019;-88
2022/03/23 01:47:34;;;;;;;53.88;38.38;;;7.20;99.90;;;;;;6255455;22;20019;-89
2022/03/23 01:50:03;;;;;;;54.08;40.05;;;7.20;99.90;;;;;;6255632;22;20403;-88
2022/03/23 01:52:31;;;;;;;57.42;40.53;;;7.20;99.90;;;;;;6255362;22;20023;-88
2022/03/23 01:54:59;;;;;;;53.95;39.03;;;7.20;99.90;;;;;;6255322;22;20030;-88
2022/03/23 01:57:25;;;;;;;50.92;37.28;;;7.10;99.90;;;;;;6254897;22;20019;-87
2022/03/23 01:59:51;;;;;;;53.03;38.27;;;7.10;99.90;;;;;;6254957;22;20026;-87
2022/03/23 02:04:52;;;;;;;46.35;35.58;;;7.10;99.90;;;;;;6275916;22;20027;-87
2022/03/23 02:07:18;;;;;;;47.97;35.17;;;7.00;99.90;;;;;;6224489;22;20028;-88
2022/03/23 02:09:44;;;;;;;45.93;34.00;;;7.00;99.90;;;;;;6224646;22;20049;-88
2022/03/23 02:12:11;;;;;;;47.28;34.15;;;7.00;99.90;;;;;;6249964;22;20016;-89
2022/03/23 02:14:37;;;;;;;46.42;33.55;;;6.90;99.90;;;;;;6224697;22;20314;-89
2022/03/23 02:17:05;;;;;;;52.92;36.10;;;6.90;99.90;;;;;;6249880;22;20023;-89
2022/03/23 02:19:39;;;;;;;50.00;36.03;;;6.90;99.90;;;;;;6225494;22;20020;-88
2022/03/23 02:22:06;;;;;;;50.83;34.55;;;6.80;99.90;;;;;;6224959;22;20020;-88
2022/03/23 02:24:33;;;;;;;42.88;32.83;;;6.80;99.90;;;;;;6224635;22;20019;-88
2022/03/23 02:26:59;;;;;;;43.90;32.53;;;6.80;99.90;;;;;;6224461;22;20051;-87
2022/03/23 02:29:29;;;;;;;;;;;6.70;99.90;;;;;;6224874;22;20011;-88
2022/03/23 02:31:56;;;;;;;49.38;34.38;;;6.70;99.90;;;;;;6224522;22;19918;-88
2022/03/23 02:34:25;;;;;;;43.33;32.20;;;6.60;99.90;;;;;;6249719;22;20023;-88
2022/03/23 02:36:51;;;;;;;41.45;30.52;;;6.60;99.90;;;;;;6224798;22;20027;-88
2022/03/23 02:39:17;;;;;;;43.88;32.58;;;6.60;99.90;;;;;;6249756;22;20011;-88
2022/03/23 02:41:43;;;;;;;45.43;33.97;;;6.60;99.90;;;;;;6224791;22;20039;-88
2022/03/23 02:44:13;;;;;;;46.90;34.93;;;6.50;99.90;;;;;;6224361;22;20050;-89
2022/03/23 02:46:39;;;;;;;47.15;34.17;;;6.50;99.90;;;;;;6224662;22;20453;-88
2022/03/23 02:49:05;;;;;;;49.63;34.47;;;6.40;99.90;;;;;;6226586;22;20022;-89
2022/03/23 02:51:31;;;;;;;43.63;32.97;;;6.40;99.90;;;;;;6226576;22;20129;-89
2022/03/23 03:02:39;;;;;;;45.22;33.00;;;6.30;99.90;;;;;;6251509;22;20026;-87
2022/03/23 03:05:07;;;;;;;39.80;29.60;;;6.30;99.90;;;;;;6249319;22;20027;-90
2022/03/23 03:10:20;;;;;;;39.80;29.40;;;6.20;99.90;;;;;;6276955;22;20016;-88
2022/03/23 03:12:46;;;;;;;40.20;29.95;;;6.10;99.90;;;;;;6251877;22;20020;-88
2022/03/23 03:15:14;;;;;;;39.25;30.88;;;6.10;99.90;;;;;;6277419;22;20057;-88
2022/03/23 03:17:39;;;;;;;38.95;29.42;;;6.10;99.90;;;;;;6252075;22;20046;-88
2022/03/23 03:20:06;;;;;;;41.50;30.40;;;6.10;99.90;;;;;;6251794;22;20043;-88
2022/03/23 03:22:38;;;;;;;43.53;31.80;;;6.10;99.90;;;;;;6251565;22;20020;-88
2022/03/23 03:25:05;;;;;;;44.13;32.85;;;6.10;99.90;;;;;;6277269;22;20015;-89
2022/03/23 03:27:35;;;;;;;47.78;34.08;;;6.10;99.90;;;;;;6251583;22;20108;-90
2022/03/23 03:30:04;;;;;;;46.40;33.20;;;6.10;99.90;;;;;;6251656;22;20106;-88
2022/03/23 03:32:30;;;;;;;44.78;32.22;;;6.10;99.90;;;;;;6251748;22;20437;-89
2022/03/23 03:34:55;;;;;;;44.27;31.47;;;6.10;99.90;;;;;;6251466;22;20018;-88
2022/03/23 03:37:21;;;;;;;42.70;31.43;;;6.10;99.90;;;;;;6251237;22;20062;-87
2022/03/23 03:39:47;;;;;;;42.33;29.67;;;6.10;99.90;;;;;;6250760;22;20015;-87
2022/03/23 03:42:14;;;;;;;34.08;25.27;;;6.10;99.90;;;;;;6251368;22;20016;-88
2022/03/23 03:44:39;;;;;;;34.45;26.40;;;6.10;99.90;;;;;;6251346;22;20014;-88
2022/03/23 03:47:05;;;;;;;34.33;25.67;;;6.00;99.90;;;;;;6250921;22;20015;-87
2022/03/23 03:49:31;;;;;;;37.20;27.70;;;6.00;99.90;;;;;;6250976;22;20022;-87
2022/03/23 03:51:57;;;;;;;37.50;27.83;;;5.90;99.90;;;;;;6250887;22;20102;-87
2022/03/23 03:54:23;;;;;;;38.05;27.75;;;5.90;99.90;;;;;;6276749;22;20448;-86
2022/03/23 03:56:49;;;;;;;46.50;34.60;;;5.90;99.90;;;;;;6276418;22;20061;-87
2022/03/23 03:59:15;;;;;;;39.53;29.30;;;5.90;99.90;;;;;;6275954;22;20341;-88
2022/03/23 04:01:41;;;;;;;43.13;31.58;;;5.90;99.90;;;;;;6250743;22;20020;-87
2022/03/23 04:04:07;;;;;;;48.10;33.83;;;5.90;99.90;;;;;;6250571;22;20100;-88
2022/03/23 04:06:33;;;;;;;43.80;32.83;;;5.90;99.90;;;;;;6250598;22;20441;-87
2022/03/23 04:08:59;;;;;;;45.50;32.27;;;5.80;99.90;;;;;;6250930;22;20567;-87
2022/03/23 04:11:26;;;;;;;45.70;33.40;;;5.80;99.90;;;;;;6250524;22;20250;-87
2022/03/23 04:13:52;;;;;;;46.88;32.90;;;5.80;99.90;;;;;;6250599;22;20445;-87
2022/03/23 04:16:18;;;;;;;45.92;32.75;;;5.70;99.90;;;;;;6250778;22;20024;-88
2022/03/23 04:18:43;;;;;;;45.83;32.10;;;5.80;99.90;;;;;;6251118;22;20020;-88
2022/03/23 04:21:09;;;;;;;46.13;34.10;;;5.70;99.90;;;;;;6250656;22;20023;-87
2022/03/23 04:23:35;;;;;;;45.63;32.90;;;5.70;99.90;;;;;;6276065;22;20015;-87
2022/03/23 04:26:01;;;;;;;48.43;33.87;;;5.70;99.90;;;;;;6276014;22;20051;-86
2022/03/23 04:28:27;;;;;;;52.50;37.20;;;5.70;99.90;;;;;;6275787;22;20026;-87
2022/03/23 04:30:52;;;;;;;50.73;34.77;;;5.60;99.90;;;;;;6250333;22;20044;-87
2022/03/23 04:33:18;;;;;;;47.47;34.87;;;5.70;99.90;;;;;;6275858;22;20023;-87
2022/03/23 04:35:44;;;;;;;48.13;33.23;;;5.60;99.90;;;;;;6276012;22;20020;-89
2022/03/23 04:38:10;;;;;;;46.77;33.63;;;5.60;99.90;;;;;;6276359;22;20094;-88
2022/03/23 04:40:36;;;;;;;44.47;32.67;;;5.60;99.90;;;;;;6250514;22;20054;-88
2022/03/23 04:43:01;;;;;;;44.60;34.13;;;5.60;99.90;;;;;;6250423;22;20074;-88
2022/03/23 04:45:27;;;;;;;48.43;34.37;;;5.60;99.90;;;;;;6250528;22;20020;-88
2022/03/23 04:47:53;;;;;;;44.37;31.47;;;5.50;99.90;;;;;;6250760;22;20019;-88
2022/03/23 04:50:19;;;;;;;43.60;30.33;;;5.50;99.90;;;;;;6275903;22;20072;-89
2022/03/23 04:52:46;;;;;;;37.93;26.57;;;5.50;99.90;;;;;;6250196;22;20047;-87
2022/03/23 04:55:14;;;;;;;38.35;27.02;;;5.40;99.90;;;;;;6250137;22;20453;-86
2022/03/23 04:57:40;;;;;;;47.63;31.73;;;5.40;99.90;;;;;;6275745;22;20344;-87
2022/03/23 05:00:10;;;;;;;37.90;28.17;;;5.40;99.90;;;;;;6275637;22;20099;-88
2022/03/23 05:02:38;;;;;;;38.38;28.77;;;5.40;99.90;;;;;;6250588;22;20014;-88
2022/03/23 05:05:08;;;;;;;40.33;29.10;;;5.40;99.90;;;;;;6250016;22;20468;-88
2022/03/23 05:07:34;;;;;;;40.50;29.67;;;5.30;99.90;;;;;;6250217;22;20073;-88
2022/03/23 05:10:00;;;;;;;41.50;29.30;;;5.40;99.90;;;;;;6249989;22;20441;-87
2022/03/23 05:12:26;;;;;;;45.63;31.03;;;5.30;99.90;;;;;;6250571;22;20020;-89
2022/03/23 05:14:52;;;;;;;43.37;31.37;;;5.30;99.90;;;;;;6250446;22;20239;-88
2022/03/23 05:17:17;;;;;;;46.63;33.37;;;5.30;99.90;;;;;;6250155;22;20016;-89
2022/03/23 05:19:44;;;;;;;47.83;32.80;;;5.30;99.90;;;;;;6250314;22;20007;-88
2022/03/23 05:22:11;;;;;;;47.60;32.90;;;5.30;99.90;;;;;;6250130;22;20449;-88
2022/03/23 05:24:38;;;;;;;42.10;28.95;;;5.30;99.90;;;;;;6247982;22;20043;-88
2022/03/23 05:27:03;;;;;;;40.65;28.42;;;5.30;99.90;;;;;;6248364;22;20526;-88
2022/03/23 05:29:29;;;;;;;38.50;27.20;;;5.30;99.90;;;;;;6250208;22;20051;-88
2022/03/23 05:31:55;;;;;;;35.60;25.33;;;5.30;99.90;;;;;;6250298;22;20058;-88
2022/03/23 05:34:20;;;;;;;31.47;23.27;;;5.30;99.90;;;;;;6250090;22;20411;-88
2022/03/23 05:36:49;;;;;;;33.08;23.77;;;5.30;99.90;;;;;;6275551;22;20051;-88
2022/03/23 05:39:14;;;;;;;36.77;24.37;;;5.30;99.90;;;;;;6250131;22;20345;-88
2022/03/23 05:41:40;;;;;;;29.63;22.00;;;5.20;99.90;;;;;;6275815;22;20461;-88
2022/03/23 05:44:24;;;;;;;39.30;25.77;;;5.30;99.90;;;;;;6250202;22;20016;-87
2022/03/23 05:46:50;;;;;;;38.47;27.75;;;5.30;99.90;;;;;;6249854;22;20383;-85
2022/03/23 05:49:16;;;;;;;33.13;24.83;;;5.30;99.90;;;;;;6275001;22;20022;-84
2022/03/23 05:51:41;;;;;;;31.83;23.63;;;5.20;99.90;;;;;;6249525;22;20150;-84
2022/03/23 05:54:07;;;;;;;31.53;24.60;;;5.20;99.90;;;;;;6276912;22;20011;-87
2022/03/23 05:56:33;;;;;;;31.97;23.17;;;5.30;99.90;;;;;;6250009;22;20015;-87
2022/03/23 05:59:18;;;;;;;37.23;23.97;;;5.30;99.90;;;;;;6249935;22;20023;-89
2022/03/23 06:05:35;;;;;;;33.22;23.50;;;5.30;99.90;;;;;;6219054;23;20024;-87
2022/03/23 06:08:01;;;;;;;31.67;23.63;;;5.40;99.90;;;;;;6193014;23;20035;-86
2022/03/23 06:10:27;;;;;;;29.47;23.50;;;5.40;99.90;;;;;;6192375;23;20385;-87
2022/03/23 06:12:53;;;;;;;30.42;23.98;;;5.40;99.90;;;;;;6191745;23;20503;-87
2022/03/23 06:15:27;;;;;;;36.00;25.67;;;5.40;99.90;;;;;;6192664;23;20457;-87
2022/03/23 06:17:53;;;;;;;31.88;22.30;;;5.40;99.90;;;;;;6191093;23;20052;-87
2022/03/23 06:20:19;;;;;;;29.07;22.83;;;5.40;99.90;;;;;;6193506;23;20023;-88
2022/03/23 06:22:57;;;;;;;25.40;20.23;;;5.50;99.90;;;;;;6193461;23;20024;-88
2022/03/23 06:25:26;;;;;;;29.45;21.70;;;5.50;99.90;;;;;;6192963;23;20024;-87
2022/03/23 06:27:52;;;;;;;31.42;23.77;;;5.50;99.90;;;;;;6218185;23;20016;-87
2022/03/23 06:30:18;;;;;;;30.50;22.33;;;5.60;99.90;;;;;;6193331;23;20020;-86
2022/03/23 06:32:44;;;;;;;33.20;24.50;;;5.60;99.90;;;;;;6194344;23;20024;-87
2022/03/23 06:35:21;;;;;;;29.00;22.07;;;5.70;99.90;;;;;;6192735;23;20018;-86
2022/03/23 06:37:56;;;;;;;32.35;24.92;;;5.80;99.90;;;;;;6194516;23;20024;-85
2022/03/23 06:41:12;;;;;;;34.65;26.33;;;5.90;99.90;;;;;;6246465;23;20015;-87
2022/03/23 06:43:59;;;;;;;34.65;26.48;;;6.00;99.90;;;;;;6220189;23;20441;-88
2022/03/23 06:46:25;;;;;;;36.72;26.63;;;6.10;99.90;;;;;;6194767;23;20017;-88
2022/03/23 06:48:51;;;;;;;35.67;27.10;;;6.30;99.90;;;;;;6193872;23;20024;-87
2022/03/23 06:51:17;;;;;;;31.65;25.27;;;6.50;99.90;;;;;;6218975;23;20012;-84
2022/03/23 06:53:46;;;;;;;35.00;25.77;;;6.90;99.90;;;;;;6217893;23;20099;-84
2022/03/23 06:56:12;;;;;;;34.80;26.27;;;7.30;99.90;;;;;;6193624;23;20018;-87
2022/03/23 06:58:38;;;;;;;48.83;34.53;;;7.70;99.90;;;;;;6193899;23;20047;-87
2022/03/23 07:01:04;;;;;;;44.37;33.37;;;8.00;99.90;;;;;;6193775;23;20319;-86
2022/03/23 07:03:30;;;;;;;41.08;30.70;;;8.30;99.90;;;;;;6198029;22;20093;-87
2022/03/23 07:05:55;;;;;;;38.27;27.90;;;8.60;99.90;;;;;;6275430;22;20019;-85
2022/03/23 07:11:05;;;;;;;55.08;40.63;;;9.30;99.90;;;;;;6249147;22;20016;-87
2022/03/23 07:13:32;;;;;;;57.67;38.93;;;9.40;99.90;;;;;;6224139;22;20409;-88
2022/03/23 07:15:58;;;;;;;53.97;41.38;;;9.40;99.90;;;;;;6249193;22;20258;-88
2022/03/23 07:18:24;;;;;;;54.00;37.50;;;9.50;99.90;;;;;;6224139;22;20023;-87
2022/03/23 07:20:50;;;;;;;55.33;39.08;;;9.70;99.90;;;;;;6224066;22;20153;-87
2022/03/23 07:23:15;;;;;;;50.50;39.00;;;10.00;99.90;;;;;;6224202;22;20047;-90
2022/03/23 07:25:41;;;;;;;57.83;39.27;;;10.00;99.90;;;;;;6224070;22;20020;-85
2022/03/23 07:28:07;;;;;;;54.13;39.07;;;10.10;99.90;;;;;;6248911;22;20023;-87
2022/03/23 07:30:35;;;;;;;54.35;37.63;;;10.10;99.90;;;;;;6223880;22;20051;-86
2022/03/23 07:33:04;;;;;;;52.17;37.53;;;10.00;99.90;;;;;;6224261;22;20015;-88
2022/03/23 07:35:30;;;;;;;48.13;36.28;;;9.90;99.90;;;;;;6249461;22;20016;-87
2022/03/23 07:37:56;;;;;;;49.85;35.58;;;10.20;99.90;;;;;;6250936;22;20047;-85
2022/03/23 07:40:21;;;;;;;48.92;35.38;;;10.60;99.90;;;;;;6251176;22;20035;-86
2022/03/23 07:42:47;;;;;;;51.07;35.97;;;11.00;99.90;;;;;;6250895;22;20590;-88
2022/03/23 07:45:44;;;;;;;48.03;33.83;;;11.30;99.90;;;;;;6276612;22;20020;-86
2022/03/23 07:48:59;;;;;;;47.17;32.97;;;11.60;99.90;;;;;;6251554;22;20011;-87
2022/03/23 07:51:25;;;;;;;45.70;32.92;;;11.80;99.90;;;;;;6277214;22;20345;-89
2022/03/23 07:53:51;;;;;;;48.60;32.87;;;11.90;99.90;;;;;;6251079;22;20019;-88
2022/03/23 07:56:16;;;;;;;43.87;30.90;;;11.90;99.90;;;;;;6275815;22;20069;-87
2022/03/23 07:58:42;;;;;;;42.93;30.40;;;11.80;99.90;;;;;;6275852;22;20015;-86
2022/03/23 08:01:08;;;;;;;39.87;29.80;;;11.50;99.90;;;;;;6276458;22;20077;-86
2022/03/23 08:03:34;;;;;;;44.37;32.40;;;11.30;99.90;;;;;;6250466;22;20090;-86
2022/03/23 08:05:59;;;;;;;42.97;32.93;;;11.10;99.90;;;;;;6248486;22;20345;-88
2022/03/23 08:08:25;;;;;;;43.53;33.57;;;11.00;99.90;;;;;;6220680;23;20024;-88
2022/03/23 08:10:50;;;;;;;43.73;32.37;;;10.90;99.90;;;;;;6220657;23;20023;-88
2022/03/23 08:13:17;;;;;;;46.00;33.00;;;10.80;99.90;;;;;;6220463;23;20027;-89
2022/03/23 08:16:05;;;;;;;;;;;10.80;99.90;;;;;;6246388;23;20012;-88
2022/03/23 08:19:07;;;;;;;42.25;28.98;;;10.70;99.90;;;;;;6189268;23;20341;-86
2022/03/23 08:21:34;;;;;;;41.97;30.50;;;10.70;99.90;;;;;;6163444;23;20105;-86
2022/03/23 08:24:00;;;;;;;41.42;31.05;;;10.70;99.90;;;;;;6188884;23;20026;-86
2022/03/23 08:26:26;;;;;;;40.90;31.00;;;10.80;99.90;;;;;;6188881;23;20377;-86
2022/03/23 08:28:52;;;;;;;41.15;31.45;;;10.80;99.90;;;;;;6188867;23;20021;-86
2022/03/23 08:31:18;;;;;;;45.63;31.50;;;10.90;99.90;;;;;;6188316;23;20015;-86
2022/03/23 08:36:20;;;;;;;42.17;30.77;;;11.00;99.90;;;;;;6265387;22;20027;-87
2022/03/23 08:38:45;;;;;;;42.70;31.27;;;11.00;99.90;;;;;;6225125;22;20012;-87
2022/03/23 08:41:12;;;;;;;40.60;31.03;;;11.00;99.90;;;;;;6225110;22;20042;-87
2022/03/23 08:43:38;;;;;;;38.38;29.17;;;11.10;99.90;;;;;;6225508;22;20711;-86
2022/03/23 08:46:04;;;;;;;42.80;30.25;;;11.20;99.90;;;;;;6250134;22;20019;-86
2022/03/23 08:48:29;;;;;;;37.40;28.23;;;11.20;99.90;;;;;;6225442;22;20022;-88
2022/03/23 08:51:45;;;;;;;40.50;30.03;;;11.30;99.90;;;;;;6225946;22;20019;-88
2022/03/23 08:54:22;;;;;;;40.70;29.05;;;11.40;99.90;;;;;;6226161;22;20038;-88
2022/03/23 08:56:48;;;;;;;;;;;11.50;99.90;;;;;;6225802;22;20046;-88
2022/03/23 08:59:14;;;;;;;39.20;28.50;;;11.60;99.90;;;;;;6225147;22;19915;-87
2022/03/23 09:01:40;;;;;;;39.27;27.10;;;11.70;99.90;;;;;;6250386;22;20026;-87
2022/03/23 09:04:08;;;;;;;34.07;25.77;;;11.80;99.90;;;;;;6250151;22;20492;-87
2022/03/23 09:06:34;;;;;;;32.40;24.88;;;11.90;99.90;;;;;;6224744;22;20098;-86
2022/03/23 09:09:00;;;;;;;32.10;24.05;;;12.00;99.90;;;;;;6253318;22;20016;-86
2022/03/23 09:11:26;;;;;;;35.75;23.83;;;12.10;99.90;;;;;;6255411;22;20038;-88
2022/03/23 09:13:52;;;;;;;29.97;22.93;;;12.20;99.90;;;;;;6255167;22;20011;-87
2022/03/23 09:16:18;;;;;;;32.90;22.73;;;12.30;99.80;;;;;;6255138;22;20144;-87
2022/03/23 09:19:12;;;;;;;32.73;23.37;;;12.50;98.90;;;;;;6280786;22;20044;-87
2022/03/23 09:22:06;;;;;;;33.83;23.65;;;12.50;98.50;;;;;;6255662;22;20081;-88
2022/03/23 09:24:52;;;;;;;32.13;23.35;;;12.60;98.60;;;;;;6280529;22;20019;-85
2022/03/23 09:27:17;;;;;;;34.47;25.23;;;12.80;98.00;;;;;;6279898;22;20457;-86
2022/03/23 09:29:44;;;;;;;29.70;23.63;;;12.90;97.80;;;;;;6280113;22;20043;-85
2022/03/23 09:32:12;;;;;;;31.77;24.40;;;13.00;97.90;;;;;;6254885;22;20027;-87
2022/03/23 09:34:39;;;;;;;33.53;24.20;;;13.00;97.40;;;;;;6280038;22;20356;-87
2022/03/23 09:39:51;;;;;;;30.33;23.63;;;13.20;96.00;;;;;;6281133;22;20385;-86
2022/03/23 09:42:18;;;;;;;31.75;23.58;;;13.30;95.60;;;;;;6254849;22;20015;-82
2022/03/23 09:44:48;;;;;;;30.45;23.83;;;13.40;95.20;;;;;;6280310;22;20015;-85
2022/03/23 09:47:14;;;;;;;28.70;21.85;;;13.50;94.60;;;;;;6254483;22;20019;-83
2022/03/23 09:49:55;;;;;;;;;;;13.60;94.10;;;;;;6280955;22;20015;-84
2022/03/23 09:52:34;;;;;;;29.95;21.67;;;13.70;93.40;;;;;;6254838;22;19918;-85
2022/03/23 09:54:59;;;;;;;27.75;22.20;;;13.80;91.80;;;;;;6254549;22;20429;-84
2022/03/23 09:57:25;;;;;;;31.43;22.10;;;13.90;90.90;;;;;;6280076;22;20011;-86
2022/03/23 09:59:51;;;;;;;29.73;22.43;;;14.00;90.30;;;;;;6254110;22;20011;-86
2022/03/23 10:02:48;;;;;;;31.93;23.03;;;14.10;88.90;;;;;;6279845;22;20049;-82
2022/03/23 10:05:46;;;;;;;31.08;22.90;;;14.20;90.10;;;;;;6125470;22;20348;-82
2022/03/23 10:08:51;;;;;;;30.20;21.50;;;14.30;89.50;;;;;;6307910;22;20460;-84
2022/03/23 10:11:44;;;;;;;29.10;22.35;;;14.50;86.20;;;;;;6247859;22;20418;-84
2022/03/23 10:14:48;;;;;;;33.78;22.30;;;14.60;82.50;;;;;;6248969;22;20018;-83
2022/03/23 10:17:37;;;;;;;28.77;22.42;;;14.70;84.20;;;;;;6249056;22;20100;-85
2022/03/23 10:20:28;;;;;;;28.38;21.30;;;14.80;81.60;;;;;;6249819;22;20070;-87
2022/03/23 10:23:09;;;;;;;28.40;21.40;;;15.00;82.00;;;;;;6249349;22;20026;-86
2022/03/23 10:25:38;;;;;;;24.88;20.08;;;15.10;80.50;;;;;;6249650;22;20380;-86
2022/03/23 10:28:15;;;;;;;24.77;20.08;;;15.20;76.80;;;;;;6274667;22;20023;-84
2022/03/23 10:30:42;;;;;;;29.85;21.15;;;15.30;76.20;;;;;;6274804;22;20012;-85
2022/03/23 10:33:22;;;;;;;26.45;20.65;;;15.40;75.20;;;;;;6274737;22;20019;-85
2022/03/23 10:35:49;;;;;;;28.40;20.02;;;15.50;74.40;;;;;;6274989;22;20012;-88
2022/03/23 10:38:17;;;;;;;26.35;20.38;;;15.60;73.00;;;;;;6256000;22;20511;-88
2022/03/23 10:40:45;;;;;;;30.80;20.25;;;15.60;73.10;;;;;;6223959;22;20015;-85
2022/03/23 10:43:13;;;;;;;24.05;19.90;;;15.80;71.30;;;;;;6223933;22;20433;-86
2022/03/23 10:45:39;;;;;;;24.65;20.15;;;15.80;71.50;;;;;;6223869;22;20740;-86
2022/03/23 10:49:03;;;;;;;25.23;19.58;;;15.90;69.90;;;;;;6249202;22;20015;-88
2022/03/23 10:51:49;;;;;;;24.85;19.30;;;16.00;68.20;;;;;;6225624;22;20102;-87
2022/03/23 10:54:18;;;;;;;25.45;19.45;;;16.10;68.90;;;;;;6249106;22;20107;-86
2022/03/23 10:56:44;;;;;;;22.92;18.80;;;16.20;67.60;;;;;;6249277;22;20018;-86
2022/03/23 10:59:22;;;;;;;24.42;18.65;;;16.20;67.00;;;;;;6277200;22;20020;-86
2022/03/23 11:02:09;;;;;;;23.50;18.27;;;16.30;65.90;;;;;;6225292;22;20020;-85
2022/03/23 11:04:43;;;;;;;24.35;18.35;;;16.30;65.40;;;;;;6223581;22;20019;-86
2022/03/23 11:07:39;;;;;;;24.77;18.40;;;16.40;63.90;;;;;;6252107;22;20515;-86
2022/03/23 11:15:49;;;;;;;22.35;17.38;;;16.60;62.70;;;;;;6254024;22;20027;-88
2022/03/23 11:18:33;;;;;;;26.85;17.05;;;16.70;61.40;;;;;;6254922;22;20014;-86
2022/03/23 11:21:12;;;;;;;22.15;16.67;;;16.80;61.60;;;;;;6225868;22;20456;-84
2022/03/23 11:23:38;;;;;;;23.17;16.27;;;16.80;60.10;;;;;;6225627;22;20019;-85
2022/03/23 11:26:05;;;;;;;21.88;16.50;;;16.80;58.90;;;;;;6225483;22;20074;-84
2022/03/23 11:28:38;;;;;;;22.02;14.65;;;16.80;58.20;;;;;;6250918;22;20448;-84
2022/03/23 11:31:06;;;;;;;21.83;14.88;;;16.90;57.80;;;;;;6250824;22;20011;-83
2022/03/23 11:33:34;;;;;;;22.13;15.05;;;17.00;57.20;;;;;;6250605;22;20015;-84
2022/03/23 11:36:30;;;;;;;19.73;14.07;;;17.10;57.00;;;;;;6225906;22;20020;-85
2022/03/23 11:38:59;;;;;;;17.13;14.55;;;17.20;57.00;;;;;;6226055;22;20062;-91
2022/03/23 11:41:25;;;;;;;22.13;15.60;;;17.20;56.40;;;;;;6226166;22;20342;-89
2022/03/23 11:43:51;;;;;;;22.88;16.38;;;17.30;56.30;;;;;;6225928;22;20023;-87
2022/03/23 11:46:45;;;;;;;22.70;15.47;;;17.30;56.50;;;;;;6225813;22;20020;-90
2022/03/23 11:53:22;;;;;;;21.10;15.25;;;17.30;54.90;;;;;;6280788;22;20034;-92
2022/03/23 11:55:53;;;;;;;19.35;13.38;;;17.40;56.50;;;;;;6228928;22;20035;-91
2022/03/23 11:58:23;;;;;;;23.13;14.57;;;17.50;55.30;;;;;;6203089;22;20033;-90
2022/03/23 12:01:06;;;;;;;24.13;13.27;;;17.50;54.60;;;;;;6227239;22;20023;-89
2022/03/23 12:03:41;;;;;;;21.98;12.13;;;17.50;54.30;;;;;;6226445;22;20019;-91
2022/03/23 12:06:44;;;;;;;23.45;12.88;;;17.60;53.30;;;;;;6253119;22;20019;-92
2022/03/23 12:09:31;;;;;;;24.00;14.25;;;17.60;56.20;;;;;;6226473;22;20058;-91
2022/03/23 12:12:05;;;;;;;25.08;13.30;;;17.70;53.30;;;;;;6226194;22;20023;-93
2022/03/23 12:14:49;;;;;;;17.58;11.40;;;17.70;54.60;;;;;;6226363;22;20015;-92
2022/03/23 12:34:09;;;;;;;16.65;13.55;;;18.00;53.50;;;;;;6277617;22;20073;-86
2022/03/23 12:36:57;;;;;;;21.33;14.32;;;17.90;52.80;;;;;;6226727;22;20067;-87
2022/03/23 12:39:40;;;;;;;20.33;14.00;;;18.00;52.70;;;;;;6228304;22;20023;-88
2022/03/23 12:42:17;;;;;;;20.23;13.02;;;17.90;53.50;;;;;;6252669;22;20023;-88
2022/03/23 12:45:07;;;;;;;22.38;12.95;;;18.00;53.50;;;;;;6252885;22;20012;-88
2022/03/23 12:47:35;;;;;;;19.83;10.75;;;18.00;53.10;;;;;;6251278;22;20015;-87
2022/03/23 12:58:33;;;;;;;21.13;11.82;;;18.10;52.90;;;;;;6276386;22;20105;-85
2022/03/23 13:01:17;;;;;;;22.02;10.90;;;18.10;53.00;;;;;;6248936;22;20015;-86
2022/03/23 13:03:53;;;;;;;22.77;10.40;;;18.10;52.70;;;;;;6250097;22;20103;-86
2022/03/23 13:06:20;;;;;;;21.40;10.70;;;18.10;53.60;;;;;;6249177;22;20034;-85
2022/03/23 13:08:49;;;;;;;21.20;11.25;;;18.10;52.30;;;;;;6250567;22;20026;-86
2022/03/23 13:11:21;;;;;;;22.58;10.77;;;18.10;52.30;;;;;;6250098;22;20020;-87
2022/03/23 13:13:50;;;;;;;22.27;11.18;;;18.10;52.50;;;;;;6250850;22;20026;-85
2022/03/23 13:16:18;;;;;;;20.65;9.88;;;18.10;52.50;;;;;;6252723;22;20019;-86
2022/03/23 13:18:45;;;;;;;23.60;12.48;;;18.10;52.00;;;;;;6227302;22;20019;-85
2022/03/23 13:21:13;;;;;;;;;;;18.10;51.90;;;;;;6252772;22;20011;-85
2022/03/23 13:23:43;;;;;;;20.38;10.80;;;18.10;53.50;;;;;;6250296;22;19937;-85
2022/03/23 13:26:15;;;;;;;18.33;8.38;;;18.10;53.10;;;;;;6250481;22;20012;-85
2022/03/23 13:28:49;;;;;;;19.65;7.50;;;18.10;51.80;;;;;;6249944;22;20019;-84
2022/03/23 13:31:18;;;;;;;19.33;9.45;;;18.00;52.00;;;;;;6251132;22;20020;-86
2022/03/23 13:33:48;;;;;;;19.20;9.73;;;18.00;51.50;;;;;;6243325;22;20012;-87
2022/03/23 13:36:19;;;;;;;22.85;10.50;;;18.00;51.70;;;;;;6249843;22;20020;-85
2022/03/23 13:38:50;;;;;;;21.25;9.93;;;18.00;51.10;;;;;;6249746;22;20012;-85
2022/03/23 13:44:05;;;;;;;21.88;10.38;;;18.00;52.40;;;;;;6276175;22;20019;-85
2022/03/23 13:46:32;;;;;;;24.92;10.70;;;18.00;53.10;;;;;;6276709;22;20054;-88
2022/03/23 13:49:03;;;;;;;19.48;10.30;;;18.00;52.80;;;;;;6274994;22;20015;-88
2022/03/23 13:51:38;;;;;;;21.10;9.35;;;18.00;52.90;;;;;;6250123;22;20016;-87